Gettysburg, Ohio
Current Conditions -  °F | °C
As of 6:15 AM on Monday 22 Dec 2014 (Local Time) from KVES Reporting Station
Overcast Overcast  
Wind Chill: 28°   Ceiling: 4200
Heat Index: 28°   Visibility: 7mi
Dew Point: 28°   Wind: 3mph
Humidity: 100%   Direction: 120°ESE
Pressure: 30.02"   Gusts: NA
Location:  40.11°N, 84.5°W
Report Text: KVES 221115Z AUTO 12003KT 7SM OVC042 M02/M02 A3002 RMK AO2
Loading
Personal Weather Stations






























Interactive Weather Map New forecast layout! Learn more

10-Day Weather Forecast

Advertisements
Track Severe Weather on mobile